sensor_id;sensor_type;location;lat;lon;timestamp;P1;durP1;ratioP1;P2;durP2;ratioP2
17451;SDS011;8843;48.838;9.324;2023-04-08T00:02:11;6.07;;;4.93;;
17451;SDS011;8843;48.838;9.324;2023-04-08T00:04:38;5.87;;;5.00;;
17451;SDS011;8843;48.838;9.324;2023-04-08T00:07:05;7.40;;;5.40;;
17451;SDS011;8843;48.838;9.324;2023-04-08T00:09:32;5.87;;;5.10;;
17451;SDS011;8843;48.838;9.324;2023-04-08T00:12:00;6.90;;;5.23;;
17451;SDS011;8843;48.838;9.324;2023-04-08T00:14:27;6.27;;;5.47;;
17451;SDS011;8843;48.838;9.324;2023-04-08T00:16:54;6.70;;;5.10;;
17451;SDS011;8843;48.838;9.324;2023-04-08T00:19:21;6.23;;;5.23;;
17451;SDS011;8843;48.838;9.324;2023-04-08T00:21:48;6.27;;;5.20;;
17451;SDS011;8843;48.838;9.324;2023-04-08T00:24:15;5.90;;;5.27;;
17451;SDS011;8843;48.838;9.324;2023-04-08T00:26:42;7.33;;;5.37;;
17451;SDS011;8843;48.838;9.324;2023-04-08T00:29:10;8.07;;;5.23;;
17451;SDS011;8843;48.838;9.324;2023-04-08T00:31:37;6.87;;;5.20;;
17451;SDS011;8843;48.838;9.324;2023-04-08T00:34:04;6.77;;;5.70;;
17451;SDS011;8843;48.838;9.324;2023-04-08T00:36:31;6.57;;;5.87;;
17451;SDS011;8843;48.838;9.324;2023-04-08T00:38:58;6.87;;;5.23;;
17451;SDS011;8843;48.838;9.324;2023-04-08T00:41:25;6.33;;;5.23;;
17451;SDS011;8843;48.838;9.324;2023-04-08T00:43:53;6.77;;;5.33;;
17451;SDS011;8843;48.838;9.324;2023-04-08T00:46:21;6.17;;;5.40;;
17451;SDS011;8843;48.838;9.324;2023-04-08T00:48:48;6.47;;;5.27;;
17451;SDS011;8843;48.838;9.324;2023-04-08T00:51:15;7.33;;;5.90;;
17451;SDS011;8843;48.838;9.324;2023-04-08T00:53:42;6.13;;;5.43;;
17451;SDS011;8843;48.838;9.324;2023-04-08T00:56:08;7.53;;;6.33;;
17451;SDS011;8843;48.838;9.324;2023-04-08T00:58:36;7.60;;;5.80;;
17451;SDS011;8843;48.838;9.324;2023-04-08T01:01:04;6.27;;;5.67;;
17451;SDS011;8843;48.838;9.324;2023-04-08T01:03:41;6.97;;;5.87;;
17451;SDS011;8843;48.838;9.324;2023-04-08T01:06:17;8.20;;;6.20;;
17451;SDS011;8843;48.838;9.324;2023-04-08T01:08:48;5.30;;;4.80;;
17451;SDS011;8843;48.838;9.324;2023-04-08T01:11:17;6.13;;;5.33;;
17451;SDS011;8843;48.838;9.324;2023-04-08T01:13:45;6.43;;;4.67;;
17451;SDS011;8843;48.838;9.324;2023-04-08T01:16:14;7.33;;;6.10;;
17451;SDS011;8843;48.838;9.324;2023-04-08T01:18:44;7.83;;;6.20;;
17451;SDS011;8843;48.838;9.324;2023-04-08T01:21:13;7.43;;;6.63;;
17451;SDS011;8843;48.838;9.324;2023-04-08T01:23:43;7.17;;;5.80;;
17451;SDS011;8843;48.838;9.324;2023-04-08T01:26:21;10.30;;;6.97;;
17451;SDS011;8843;48.838;9.324;2023-04-08T01:28:51;8.30;;;7.03;;
17451;SDS011;8843;48.838;9.324;2023-04-08T01:31:20;7.73;;;5.20;;
17451;SDS011;8843;48.838;9.324;2023-04-08T01:33:49;7.97;;;7.03;;
17451;SDS011;8843;48.838;9.324;2023-04-08T01:36:17;7.33;;;6.57;;
17451;SDS011;8843;48.838;9.324;2023-04-08T01:38:46;9.67;;;7.53;;
17451;SDS011;8843;48.838;9.324;2023-04-08T01:41:14;8.03;;;6.80;;
17451;SDS011;8843;48.838;9.324;2023-04-08T01:43:44;8.70;;;7.47;;
17451;SDS011;8843;48.838;9.324;2023-04-08T01:46:12;7.97;;;7.00;;
17451;SDS011;8843;48.838;9.324;2023-04-08T01:48:40;8.83;;;7.13;;
17451;SDS011;8843;48.838;9.324;2023-04-08T01:51:08;10.43;;;7.83;;
17451;SDS011;8843;48.838;9.324;2023-04-08T01:53:36;10.57;;;7.80;;
17451;SDS011;8843;48.838;9.324;2023-04-08T01:56:05;7.43;;;6.23;;
17451;SDS011;8843;48.838;9.324;2023-04-08T01:58:36;8.40;;;7.47;;
17451;SDS011;8843;48.838;9.324;2023-04-08T02:03:50;8.87;;;7.47;;
17451;SDS011;8843;48.838;9.324;2023-04-08T02:06:21;9.70;;;7.37;;
17451;SDS011;8843;48.838;9.324;2023-04-08T02:08:48;10.30;;;8.07;;
17451;SDS011;8843;48.838;9.324;2023-04-08T02:11:15;10.20;;;9.10;;
17451;SDS011;8843;48.838;9.324;2023-04-08T02:13:42;8.10;;;7.10;;
17451;SDS011;8843;48.838;9.324;2023-04-08T02:16:10;10.83;;;8.23;;
17451;SDS011;8843;48.838;9.324;2023-04-08T02:18:45;11.03;;;8.63;;
17451;SDS011;8843;48.838;9.324;2023-04-08T02:21:18;9.10;;;7.70;;
17451;SDS011;8843;48.838;9.324;2023-04-08T02:23:51;8.10;;;7.00;;
17451;SDS011;8843;48.838;9.324;2023-04-08T02:26:20;9.17;;;7.60;;
17451;SDS011;8843;48.838;9.324;2023-04-08T02:28:48;7.80;;;6.43;;
17451;SDS011;8843;48.838;9.324;2023-04-08T02:31:16;9.93;;;7.30;;
17451;SDS011;8843;48.838;9.324;2023-04-08T02:33:45;9.27;;;7.60;;
17451;SDS011;8843;48.838;9.324;2023-04-08T02:36:14;9.20;;;8.00;;
17451;SDS011;8843;48.838;9.324;2023-04-08T02:38:41;10.60;;;8.37;;
17451;SDS011;8843;48.838;9.324;2023-04-08T02:41:13;8.87;;;7.33;;
17451;SDS011;8843;48.838;9.324;2023-04-08T02:43:40;10.60;;;8.07;;
17451;SDS011;8843;48.838;9.324;2023-04-08T02:46:07;9.80;;;8.17;;
17451;SDS011;8843;48.838;9.324;2023-04-08T02:48:35;8.20;;;7.23;;
17451;SDS011;8843;48.838;9.324;2023-04-08T02:51:04;10.43;;;8.33;;
17451;SDS011;8843;48.838;9.324;2023-04-08T02:53:31;10.33;;;7.33;;
17451;SDS011;8843;48.838;9.324;2023-04-08T02:55:57;8.63;;;7.73;;
17451;SDS011;8843;48.838;9.324;2023-04-08T02:58:24;8.93;;;6.70;;
17451;SDS011;8843;48.838;9.324;2023-04-08T03:00:51;11.00;;;8.47;;
17451;SDS011;8843;48.838;9.324;2023-04-08T03:03:18;8.80;;;7.63;;
17451;SDS011;8843;48.838;9.324;2023-04-08T03:05:51;10.33;;;8.00;;
17451;SDS011;8843;48.838;9.324;2023-04-08T03:08:20;9.43;;;7.57;;
17451;SDS011;8843;48.838;9.324;2023-04-08T03:10:47;9.63;;;7.37;;
17451;SDS011;8843;48.838;9.324;2023-04-08T03:13:14;9.07;;;7.33;;
17451;SDS011;8843;48.838;9.324;2023-04-08T03:15:41;9.90;;;7.37;;
17451;SDS011;8843;48.838;9.324;2023-04-08T03:18:08;10.50;;;7.87;;
17451;SDS011;8843;48.838;9.324;2023-04-08T03:20:35;9.93;;;8.13;;
17451;SDS011;8843;48.838;9.324;2023-04-08T03:23:02;10.43;;;8.20;;
17451;SDS011;8843;48.838;9.324;2023-04-08T03:25:30;9.57;;;7.70;;
17451;SDS011;8843;48.838;9.324;2023-04-08T03:27:57;9.77;;;8.07;;
17451;SDS011;8843;48.838;9.324;2023-04-08T03:30:24;8.43;;;7.47;;
17451;SDS011;8843;48.838;9.324;2023-04-08T03:32:51;9.63;;;7.30;;
17451;SDS011;8843;48.838;9.324;2023-04-08T03:35:18;9.70;;;7.40;;
17451;SDS011;8843;48.838;9.324;2023-04-08T03:37:45;9.00;;;7.93;;
17451;SDS011;8843;48.838;9.324;2023-04-08T03:40:12;7.17;;;5.87;;
17451;SDS011;8843;48.838;9.324;2023-04-08T03:42:40;8.90;;;7.40;;
17451;SDS011;8843;48.838;9.324;2023-04-08T03:45:08;10.23;;;7.50;;
17451;SDS011;8843;48.838;9.324;2023-04-08T03:47:35;8.67;;;7.13;;
17451;SDS011;8843;48.838;9.324;2023-04-08T03:50:02;8.40;;;6.87;;
17451;SDS011;8843;48.838;9.324;2023-04-08T03:52:29;8.33;;;7.20;;
17451;SDS011;8843;48.838;9.324;2023-04-08T03:54:55;7.97;;;6.27;;
17451;SDS011;8843;48.838;9.324;2023-04-08T03:57:22;10.77;;;7.40;;
17451;SDS011;8843;48.838;9.324;2023-04-08T03:59:50;11.00;;;7.97;;
17451;SDS011;8843;48.838;9.324;2023-04-08T04:02:17;10.80;;;8.10;;
17451;SDS011;8843;48.838;9.324;2023-04-08T04:04:44;9.53;;;7.47;;
17451;SDS011;8843;48.838;9.324;2023-04-08T04:07:11;10.50;;;8.30;;
17451;SDS011;8843;48.838;9.324;2023-04-08T04:09:38;10.30;;;7.40;;
17451;SDS011;8843;48.838;9.324;2023-04-08T04:12:05;9.27;;;8.17;;
17451;SDS011;8843;48.838;9.324;2023-04-08T04:14:32;10.70;;;7.80;;
17451;SDS011;8843;48.838;9.324;2023-04-08T04:17:00;11.50;;;8.70;;
17451;SDS011;8843;48.838;9.324;2023-04-08T04:19:28;11.97;;;8.63;;
17451;SDS011;8843;48.838;9.324;2023-04-08T04:21:56;12.20;;;9.80;;
17451;SDS011;8843;48.838;9.324;2023-04-08T04:24:23;9.70;;;8.13;;
17451;SDS011;8843;48.838;9.324;2023-04-08T04:26:50;8.57;;;6.47;;
17451;SDS011;8843;48.838;9.324;2023-04-08T04:29:16;13.10;;;9.13;;
17451;SDS011;8843;48.838;9.324;2023-04-08T04:31:43;9.43;;;7.27;;
17451;SDS011;8843;48.838;9.324;2023-04-08T04:34:11;13.57;;;8.67;;
17451;SDS011;8843;48.838;9.324;2023-04-08T04:36:38;11.97;;;8.87;;
17451;SDS011;8843;48.838;9.324;2023-04-08T04:39:05;12.23;;;8.50;;
17451;SDS011;8843;48.838;9.324;2023-04-08T04:41:32;9.37;;;7.27;;
17451;SDS011;8843;48.838;9.324;2023-04-08T04:44:04;11.53;;;8.83;;
17451;SDS011;8843;48.838;9.324;2023-04-08T04:46:31;10.30;;;8.43;;
17451;SDS011;8843;48.838;9.324;2023-04-08T04:48:58;11.97;;;8.67;;
17451;SDS011;8843;48.838;9.324;2023-04-08T04:51:26;12.77;;;9.10;;
17451;SDS011;8843;48.838;9.324;2023-04-08T04:53:56;11.57;;;8.47;;
17451;SDS011;8843;48.838;9.324;2023-04-08T04:56:23;11.33;;;9.27;;
17451;SDS011;8843;48.838;9.324;2023-04-08T04:58:51;11.33;;;8.60;;
17451;SDS011;8843;48.838;9.324;2023-04-08T05:01:18;11.13;;;8.50;;
17451;SDS011;8843;48.838;9.324;2023-04-08T05:03:45;11.13;;;7.67;;
17451;SDS011;8843;48.838;9.324;2023-04-08T05:06:12;11.97;;;8.03;;
17451;SDS011;8843;48.838;9.324;2023-04-08T05:08:40;11.80;;;8.90;;
17451;SDS011;8843;48.838;9.324;2023-04-08T05:11:08;11.53;;;8.10;;
17451;SDS011;8843;48.838;9.324;2023-04-08T05:13:35;11.13;;;7.97;;
17451;SDS011;8843;48.838;9.324;2023-04-08T05:16:02;9.33;;;7.07;;
17451;SDS011;8843;48.838;9.324;2023-04-08T05:18:29;11.53;;;8.03;;
17451;SDS011;8843;48.838;9.324;2023-04-08T05:20:56;10.63;;;9.27;;
17451;SDS011;8843;48.838;9.324;2023-04-08T05:23:23;12.63;;;8.57;;
17451;SDS011;8843;48.838;9.324;2023-04-08T05:25:51;11.67;;;8.03;;
17451;SDS011;8843;48.838;9.324;2023-04-08T05:28:18;12.77;;;9.20;;
17451;SDS011;8843;48.838;9.324;2023-04-08T05:30:47;10.57;;;7.87;;
17451;SDS011;8843;48.838;9.324;2023-04-08T05:33:15;13.77;;;8.60;;
17451;SDS011;8843;48.838;9.324;2023-04-08T05:35:42;14.10;;;10.53;;
17451;SDS011;8843;48.838;9.324;2023-04-08T05:38:09;14.20;;;10.40;;
17451;SDS011;8843;48.838;9.324;2023-04-08T05:40:36;12.63;;;8.73;;
17451;SDS011;8843;48.838;9.324;2023-04-08T05:43:04;11.93;;;9.40;;
17451;SDS011;8843;48.838;9.324;2023-04-08T05:45:31;17.93;;;10.97;;
17451;SDS011;8843;48.838;9.324;2023-04-08T05:47:58;14.43;;;10.00;;
17451;SDS011;8843;48.838;9.324;2023-04-08T05:50:25;12.63;;;9.23;;
17451;SDS011;8843;48.838;9.324;2023-04-08T05:52:51;13.80;;;10.37;;
17451;SDS011;8843;48.838;9.324;2023-04-08T05:55:18;11.60;;;9.53;;
17451;SDS011;8843;48.838;9.324;2023-04-08T05:57:46;13.50;;;10.13;;
17451;SDS011;8843;48.838;9.324;2023-04-08T06:00:14;12.43;;;9.10;;
17451;SDS011;8843;48.838;9.324;2023-04-08T06:02:41;14.33;;;10.43;;
17451;SDS011;8843;48.838;9.324;2023-04-08T06:05:08;15.87;;;10.83;;
17451;SDS011;8843;48.838;9.324;2023-04-08T06:07:35;16.67;;;10.47;;
17451;SDS011;8843;48.838;9.324;2023-04-08T06:10:02;16.17;;;10.30;;
17451;SDS011;8843;48.838;9.324;2023-04-08T06:12:33;13.90;;;10.17;;
17451;SDS011;8843;48.838;9.324;2023-04-08T06:15:01;12.70;;;9.13;;
17451;SDS011;8843;48.838;9.324;2023-04-08T06:17:29;14.90;;;10.37;;
17451;SDS011;8843;48.838;9.324;2023-04-08T06:19:56;13.03;;;9.60;;
17451;SDS011;8843;48.838;9.324;2023-04-08T06:22:23;14.73;;;10.23;;
17451;SDS011;8843;48.838;9.324;2023-04-08T06:24:50;17.67;;;11.53;;
17451;SDS011;8843;48.838;9.324;2023-04-08T06:27:17;13.10;;;9.40;;
17451;SDS011;8843;48.838;9.324;2023-04-08T06:29:44;15.87;;;10.60;;
17451;SDS011;8843;48.838;9.324;2023-04-08T06:32:11;13.20;;;9.23;;
17451;SDS011;8843;48.838;9.324;2023-04-08T06:34:39;14.83;;;10.50;;
17451;SDS011;8843;48.838;9.324;2023-04-08T06:37:06;15.87;;;9.80;;
17451;SDS011;8843;48.838;9.324;2023-04-08T06:39:33;11.57;;;8.67;;
17451;SDS011;8843;48.838;9.324;2023-04-08T06:42:00;13.93;;;10.00;;
17451;SDS011;8843;48.838;9.324;2023-04-08T06:44:27;12.70;;;9.17;;
17451;SDS011;8843;48.838;9.324;2023-04-08T06:46:54;12.37;;;9.70;;
17451;SDS011;8843;48.838;9.324;2023-04-08T06:49:21;16.40;;;10.90;;
17451;SDS011;8843;48.838;9.324;2023-04-08T06:51:49;13.57;;;9.93;;
17451;SDS011;8843;48.838;9.324;2023-04-08T06:54:16;11.93;;;9.13;;
17451;SDS011;8843;48.838;9.324;2023-04-08T06:56:43;13.40;;;9.93;;
17451;SDS011;8843;48.838;9.324;2023-04-08T06:59:10;13.70;;;10.13;;
17451;SDS011;8843;48.838;9.324;2023-04-08T07:01:37;15.10;;;10.40;;
17451;SDS011;8843;48.838;9.324;2023-04-08T07:04:05;13.53;;;10.00;;
17451;SDS011;8843;48.838;9.324;2023-04-08T07:06:32;13.30;;;9.50;;
17451;SDS011;8843;48.838;9.324;2023-04-08T07:09:00;14.37;;;10.90;;
17451;SDS011;8843;48.838;9.324;2023-04-08T07:11:27;10.77;;;9.03;;
17451;SDS011;8843;48.838;9.324;2023-04-08T07:13:54;14.67;;;10.50;;
17451;SDS011;8843;48.838;9.324;2023-04-08T07:16:21;14.57;;;10.03;;
17451;SDS011;8843;48.838;9.324;2023-04-08T07:18:48;13.67;;;9.17;;
17451;SDS011;8843;48.838;9.324;2023-04-08T07:21:15;13.77;;;9.00;;
17451;SDS011;8843;48.838;9.324;2023-04-08T07:23:42;11.63;;;9.50;;
17451;SDS011;8843;48.838;9.324;2023-04-08T07:26:10;15.97;;;10.23;;
17451;SDS011;8843;48.838;9.324;2023-04-08T07:28:37;13.67;;;10.00;;
17451;SDS011;8843;48.838;9.324;2023-04-08T07:31:08;14.33;;;10.13;;
17451;SDS011;8843;48.838;9.324;2023-04-08T07:33:36;10.77;;;8.10;;
17451;SDS011;8843;48.838;9.324;2023-04-08T07:36:03;12.37;;;9.63;;
17451;SDS011;8843;48.838;9.324;2023-04-08T07:38:30;13.73;;;10.40;;
17451;SDS011;8843;48.838;9.324;2023-04-08T07:40:57;14.13;;;10.50;;
17451;SDS011;8843;48.838;9.324;2023-04-08T07:43:26;13.07;;;10.57;;
17451;SDS011;8843;48.838;9.324;2023-04-08T07:45:53;12.63;;;9.57;;
17451;SDS011;8843;48.838;9.324;2023-04-08T07:48:26;15.57;;;11.60;;
17451;SDS011;8843;48.838;9.324;2023-04-08T07:50:53;12.70;;;9.53;;
17451;SDS011;8843;48.838;9.324;2023-04-08T07:53:20;13.43;;;9.57;;
17451;SDS011;8843;48.838;9.324;2023-04-08T07:55:48;13.00;;;9.27;;
17451;SDS011;8843;48.838;9.324;2023-04-08T07:58:15;13.37;;;10.50;;
17451;SDS011;8843;48.838;9.324;2023-04-08T08:00:43;12.63;;;9.67;;
17451;SDS011;8843;48.838;9.324;2023-04-08T08:03:10;12.60;;;9.50;;
17451;SDS011;8843;48.838;9.324;2023-04-08T08:05:37;12.37;;;10.00;;
17451;SDS011;8843;48.838;9.324;2023-04-08T08:08:04;12.13;;;8.73;;
17451;SDS011;8843;48.838;9.324;2023-04-08T08:10:32;11.47;;;9.50;;
17451;SDS011;8843;48.838;9.324;2023-04-08T08:12:59;15.57;;;10.10;;
17451;SDS011;8843;48.838;9.324;2023-04-08T08:15:26;12.50;;;10.97;;
17451;SDS011;8843;48.838;9.324;2023-04-08T08:17:54;14.93;;;10.93;;
17451;SDS011;8843;48.838;9.324;2023-04-08T08:20:21;13.70;;;10.90;;
17451;SDS011;8843;48.838;9.324;2023-04-08T08:22:48;14.73;;;11.70;;
17451;SDS011;8843;48.838;9.324;2023-04-08T08:25:15;14.37;;;10.53;;
17451;SDS011;8843;48.838;9.324;2023-04-08T08:27:42;14.33;;;10.37;;
17451;SDS011;8843;48.838;9.324;2023-04-08T08:30:10;14.43;;;10.83;;
17451;SDS011;8843;48.838;9.324;2023-04-08T08:32:37;16.90;;;11.80;;
17451;SDS011;8843;48.838;9.324;2023-04-08T08:35:05;14.57;;;10.73;;
17451;SDS011;8843;48.838;9.324;2023-04-08T08:37:33;14.73;;;11.10;;
17451;SDS011;8843;48.838;9.324;2023-04-08T08:40:00;13.90;;;10.53;;
17451;SDS011;8843;48.838;9.324;2023-04-08T08:42:27;14.33;;;9.90;;
17451;SDS011;8843;48.838;9.324;2023-04-08T08:44:54;17.17;;;11.20;;
17451;SDS011;8843;48.838;9.324;2023-04-08T08:47:21;14.90;;;10.93;;
17451;SDS011;8843;48.838;9.324;2023-04-08T08:49:48;14.30;;;10.80;;
17451;SDS011;8843;48.838;9.324;2023-04-08T08:52:17;14.77;;;10.17;;
17451;SDS011;8843;48.838;9.324;2023-04-08T08:54:44;15.63;;;10.37;;
17451;SDS011;8843;48.838;9.324;2023-04-08T08:57:17;12.47;;;9.43;;
17451;SDS011;8843;48.838;9.324;2023-04-08T08:59:45;11.43;;;9.93;;
17451;SDS011;8843;48.838;9.324;2023-04-08T09:02:25;12.60;;;10.70;;
17451;SDS011;8843;48.838;9.324;2023-04-08T09:04:57;16.10;;;11.03;;
17451;SDS011;8843;48.838;9.324;2023-04-08T09:07:26;11.93;;;10.07;;
17451;SDS011;8843;48.838;9.324;2023-04-08T09:09:54;14.67;;;10.43;;
17451;SDS011;8843;48.838;9.324;2023-04-08T09:12:23;11.53;;;9.17;;
17451;SDS011;8843;48.838;9.324;2023-04-08T09:14:51;14.70;;;10.97;;
17451;SDS011;8843;48.838;9.324;2023-04-08T09:17:32;14.60;;;11.57;;
17451;SDS011;8843;48.838;9.324;2023-04-08T09:20:03;15.37;;;11.23;;
17451;SDS011;8843;48.838;9.324;2023-04-08T09:22:35;17.63;;;11.07;;
17451;SDS011;8843;48.838;9.324;2023-04-08T09:25:22;13.13;;;11.13;;
17451;SDS011;8843;48.838;9.324;2023-04-08T09:27:49;11.87;;;10.10;;
17451;SDS011;8843;48.838;9.324;2023-04-08T09:30:17;13.70;;;11.40;;
17451;SDS011;8843;48.838;9.324;2023-04-08T09:32:48;14.37;;;11.63;;
17451;SDS011;8843;48.838;9.324;2023-04-08T09:35:16;12.53;;;10.27;;
17451;SDS011;8843;48.838;9.324;2023-04-08T09:37:45;15.43;;;10.77;;
17451;SDS011;8843;48.838;9.324;2023-04-08T09:40:13;12.53;;;10.33;;
17451;SDS011;8843;48.838;9.324;2023-04-08T09:42:43;16.07;;;11.23;;
17451;SDS011;8843;48.838;9.324;2023-04-08T09:45:12;13.97;;;11.13;;
17451;SDS011;8843;48.838;9.324;2023-04-08T09:47:41;13.83;;;11.07;;
17451;SDS011;8843;48.838;9.324;2023-04-08T09:50:17;14.93;;;11.03;;
17451;SDS011;8843;48.838;9.324;2023-04-08T09:52:51;12.57;;;10.20;;
17451;SDS011;8843;48.838;9.324;2023-04-08T09:55:21;11.50;;;10.30;;
17451;SDS011;8843;48.838;9.324;2023-04-08T09:57:51;12.87;;;10.80;;
17451;SDS011;8843;48.838;9.324;2023-04-08T10:00:23;10.83;;;9.53;;
17451;SDS011;8843;48.838;9.324;2023-04-08T10:02:56;13.30;;;10.57;;
17451;SDS011;8843;48.838;9.324;2023-04-08T10:05:30;11.47;;;10.10;;
17451;SDS011;8843;48.838;9.324;2023-04-08T10:07:58;12.87;;;9.87;;
17451;SDS011;8843;48.838;9.324;2023-04-08T10:10:25;14.77;;;10.33;;
17451;SDS011;8843;48.838;9.324;2023-04-08T10:12:52;11.67;;;9.20;;
17451;SDS011;8843;48.838;9.324;2023-04-08T10:15:24;11.80;;;9.57;;
17451;SDS011;8843;48.838;9.324;2023-04-08T10:17:52;10.73;;;9.30;;
17451;SDS011;8843;48.838;9.324;2023-04-08T10:23:10;10.00;;;8.30;;
17451;SDS011;8843;48.838;9.324;2023-04-08T10:25:38;8.83;;;7.87;;
17451;SDS011;8843;48.838;9.324;2023-04-08T10:28:25;11.63;;;8.67;;
17451;SDS011;8843;48.838;9.324;2023-04-08T10:30:52;11.73;;;9.07;;
17451;SDS011;8843;48.838;9.324;2023-04-08T10:33:21;11.73;;;9.47;;
17451;SDS011;8843;48.838;9.324;2023-04-08T10:35:51;10.97;;;8.17;;
17451;SDS011;8843;48.838;9.324;2023-04-08T10:38:21;10.07;;;8.80;;
17451;SDS011;8843;48.838;9.324;2023-04-08T10:40:48;10.00;;;8.17;;
17451;SDS011;8843;48.838;9.324;2023-04-08T10:43:15;10.00;;;7.90;;
17451;SDS011;8843;48.838;9.324;2023-04-08T10:45:42;10.77;;;8.80;;
17451;SDS011;8843;48.838;9.324;2023-04-08T10:48:10;10.33;;;7.60;;
17451;SDS011;8843;48.838;9.324;2023-04-08T10:50:42;19.60;;;8.00;;
17451;SDS011;8843;48.838;9.324;2023-04-08T10:53:10;7.73;;;6.60;;
17451;SDS011;8843;48.838;9.324;2023-04-08T10:55:38;10.67;;;7.40;;
17451;SDS011;8843;48.838;9.324;2023-04-08T10:58:06;7.47;;;6.43;;
17451;SDS011;8843;48.838;9.324;2023-04-08T11:00:33;10.90;;;7.77;;
17451;SDS011;8843;48.838;9.324;2023-04-08T11:03:02;9.73;;;7.37;;
17451;SDS011;8843;48.838;9.324;2023-04-08T11:05:30;8.13;;;7.07;;
17451;SDS011;8843;48.838;9.324;2023-04-08T11:07:57;10.67;;;7.73;;
17451;SDS011;8843;48.838;9.324;2023-04-08T11:10:24;8.60;;;7.33;;
17451;SDS011;8843;48.838;9.324;2023-04-08T11:12:54;9.73;;;8.13;;
17451;SDS011;8843;48.838;9.324;2023-04-08T11:15:22;9.37;;;7.63;;
17451;SDS011;8843;48.838;9.324;2023-04-08T11:17:50;11.27;;;8.47;;
17451;SDS011;8843;48.838;9.324;2023-04-08T11:20:19;8.00;;;7.20;;
17451;SDS011;8843;48.838;9.324;2023-04-08T11:22:46;8.10;;;6.97;;
17451;SDS011;8843;48.838;9.324;2023-04-08T11:25:13;8.27;;;7.27;;
17451;SDS011;8843;48.838;9.324;2023-04-08T11:27:40;9.93;;;7.47;;
17451;SDS011;8843;48.838;9.324;2023-04-08T11:30:09;7.73;;;6.93;;
17451;SDS011;8843;48.838;9.324;2023-04-08T11:32:37;8.17;;;6.63;;
17451;SDS011;8843;48.838;9.324;2023-04-08T11:35:05;9.40;;;8.07;;
17451;SDS011;8843;48.838;9.324;2023-04-08T11:37:35;10.27;;;7.83;;
17451;SDS011;8843;48.838;9.324;2023-04-08T11:40:05;10.30;;;8.00;;
17451;SDS011;8843;48.838;9.324;2023-04-08T11:42:33;8.70;;;6.83;;
17451;SDS011;8843;48.838;9.324;2023-04-08T11:45:00;8.57;;;7.17;;
17451;SDS011;8843;48.838;9.324;2023-04-08T11:47:36;10.33;;;8.27;;
17451;SDS011;8843;48.838;9.324;2023-04-08T11:50:03;9.10;;;8.17;;
17451;SDS011;8843;48.838;9.324;2023-04-08T11:52:40;9.47;;;8.00;;
17451;SDS011;8843;48.838;9.324;2023-04-08T11:55:08;11.73;;;8.10;;
17451;SDS011;8843;48.838;9.324;2023-04-08T11:57:36;8.13;;;7.27;;
17451;SDS011;8843;48.838;9.324;2023-04-08T12:00:03;8.83;;;7.43;;
17451;SDS011;8843;48.838;9.324;2023-04-08T12:02:31;10.53;;;7.83;;
17451;SDS011;8843;48.838;9.324;2023-04-08T12:04:59;7.23;;;6.23;;
17451;SDS011;8843;48.838;9.324;2023-04-08T12:07:26;8.53;;;7.63;;
17451;SDS011;8843;48.838;9.324;2023-04-08T12:09:53;10.50;;;7.67;;
17451;SDS011;8843;48.838;9.324;2023-04-08T12:12:20;7.90;;;6.53;;
17451;SDS011;8843;48.838;9.324;2023-04-08T12:14:47;9.43;;;8.37;;
17451;SDS011;8843;48.838;9.324;2023-04-08T12:17:14;7.80;;;7.00;;
17451;SDS011;8843;48.838;9.324;2023-04-08T12:19:41;8.40;;;5.90;;
17451;SDS011;8843;48.838;9.324;2023-04-08T12:22:09;8.73;;;7.83;;
17451;SDS011;8843;48.838;9.324;2023-04-08T12:24:36;11.07;;;8.50;;
17451;SDS011;8843;48.838;9.324;2023-04-08T12:27:03;9.43;;;7.60;;
17451;SDS011;8843;48.838;9.324;2023-04-08T12:29:30;10.17;;;8.10;;
17451;SDS011;8843;48.838;9.324;2023-04-08T12:31:57;9.27;;;7.93;;
17451;SDS011;8843;48.838;9.324;2023-04-08T12:34:24;8.27;;;7.33;;
17451;SDS011;8843;48.838;9.324;2023-04-08T12:36:51;11.67;;;7.93;;
17451;SDS011;8843;48.838;9.324;2023-04-08T12:39:19;11.40;;;8.43;;
17451;SDS011;8843;48.838;9.324;2023-04-08T12:41:46;10.47;;;8.47;;
17451;SDS011;8843;48.838;9.324;2023-04-08T12:44:13;9.83;;;8.00;;
17451;SDS011;8843;48.838;9.324;2023-04-08T12:46:40;12.17;;;8.50;;
17451;SDS011;8843;48.838;9.324;2023-04-08T12:49:07;9.97;;;8.03;;
17451;SDS011;8843;48.838;9.324;2023-04-08T12:51:34;9.07;;;7.63;;
17451;SDS011;8843;48.838;9.324;2023-04-08T12:54:01;9.87;;;8.63;;
17451;SDS011;8843;48.838;9.324;2023-04-08T12:56:29;9.70;;;7.07;;
17451;SDS011;8843;48.838;9.324;2023-04-08T12:58:57;9.47;;;8.20;;
17451;SDS011;8843;48.838;9.324;2023-04-08T13:01:25;9.57;;;8.13;;
17451;SDS011;8843;48.838;9.324;2023-04-08T13:03:52;10.40;;;8.23;;
17451;SDS011;8843;48.838;9.324;2023-04-08T13:06:19;10.73;;;8.13;;
17451;SDS011;8843;48.838;9.324;2023-04-08T13:08:46;8.33;;;7.53;;
17451;SDS011;8843;48.838;9.324;2023-04-08T13:11:13;10.23;;;8.20;;
17451;SDS011;8843;48.838;9.324;2023-04-08T13:13:41;9.37;;;7.17;;
17451;SDS011;8843;48.838;9.324;2023-04-08T13:16:08;9.53;;;8.10;;
17451;SDS011;8843;48.838;9.324;2023-04-08T13:18:35;12.53;;;8.13;;
17451;SDS011;8843;48.838;9.324;2023-04-08T13:21:02;9.70;;;7.50;;
17451;SDS011;8843;48.838;9.324;2023-04-08T13:23:29;8.87;;;7.60;;
17451;SDS011;8843;48.838;9.324;2023-04-08T13:25:55;12.13;;;8.63;;
17451;SDS011;8843;48.838;9.324;2023-04-08T13:28:22;8.37;;;7.43;;
17451;SDS011;8843;48.838;9.324;2023-04-08T13:30:51;8.80;;;7.23;;
17451;SDS011;8843;48.838;9.324;2023-04-08T13:33:19;9.10;;;7.90;;
17451;SDS011;8843;48.838;9.324;2023-04-08T13:35:47;11.40;;;7.23;;
17451;SDS011;8843;48.838;9.324;2023-04-08T13:38:14;8.83;;;7.57;;
17451;SDS011;8843;48.838;9.324;2023-04-08T13:40:41;9.43;;;7.57;;
17451;SDS011;8843;48.838;9.324;2023-04-08T13:43:07;8.93;;;6.77;;
17451;SDS011;8843;48.838;9.324;2023-04-08T13:45:34;8.27;;;6.67;;
17451;SDS011;8843;48.838;9.324;2023-04-08T13:48:03;7.77;;;6.77;;
17451;SDS011;8843;48.838;9.324;2023-04-08T13:50:30;8.07;;;6.70;;
17451;SDS011;8843;48.838;9.324;2023-04-08T13:52:57;7.07;;;6.37;;
17451;SDS011;8843;48.838;9.324;2023-04-08T13:55:23;8.47;;;6.40;;
17451;SDS011;8843;48.838;9.324;2023-04-08T13:57:50;7.37;;;6.63;;
17451;SDS011;8843;48.838;9.324;2023-04-08T14:00:17;7.10;;;6.40;;
17451;SDS011;8843;48.838;9.324;2023-04-08T14:02:44;7.30;;;6.50;;
17451;SDS011;8843;48.838;9.324;2023-04-08T14:05:13;10.10;;;6.87;;
17451;SDS011;8843;48.838;9.324;2023-04-08T14:07:40;8.83;;;7.13;;
17451;SDS011;8843;48.838;9.324;2023-04-08T14:10:07;6.67;;;5.97;;
17451;SDS011;8843;48.838;9.324;2023-04-08T14:12:35;7.43;;;5.90;;
17451;SDS011;8843;48.838;9.324;2023-04-08T14:15:01;8.10;;;6.83;;
17451;SDS011;8843;48.838;9.324;2023-04-08T14:17:29;7.97;;;6.47;;
17451;SDS011;8843;48.838;9.324;2023-04-08T14:19:56;10.83;;;6.90;;
17451;SDS011;8843;48.838;9.324;2023-04-08T14:22:24;7.40;;;6.03;;
17451;SDS011;8843;48.838;9.324;2023-04-08T14:24:51;9.03;;;6.23;;
17451;SDS011;8843;48.838;9.324;2023-04-08T14:27:18;8.40;;;5.90;;
17451;SDS011;8843;48.838;9.324;2023-04-08T14:29:45;7.43;;;5.70;;
17451;SDS011;8843;48.838;9.324;2023-04-08T14:32:12;7.00;;;6.03;;
17451;SDS011;8843;48.838;9.324;2023-04-08T14:34:39;6.97;;;5.67;;
17451;SDS011;8843;48.838;9.324;2023-04-08T14:37:06;8.27;;;6.40;;
17451;SDS011;8843;48.838;9.324;2023-04-08T14:39:35;7.10;;;5.60;;
17451;SDS011;8843;48.838;9.324;2023-04-08T14:42:02;6.70;;;5.33;;
17451;SDS011;8843;48.838;9.324;2023-04-08T14:44:29;7.17;;;5.10;;
17451;SDS011;8843;48.838;9.324;2023-04-08T14:46:56;6.33;;;5.63;;
17451;SDS011;8843;48.838;9.324;2023-04-08T14:49:23;6.03;;;5.13;;
17451;SDS011;8843;48.838;9.324;2023-04-08T14:51:49;8.30;;;5.63;;
17451;SDS011;8843;48.838;9.324;2023-04-08T14:54:16;7.60;;;4.60;;
17451;SDS011;8843;48.838;9.324;2023-04-08T14:56:45;4.47;;;4.07;;
17451;SDS011;8843;48.838;9.324;2023-04-08T14:59:12;6.10;;;4.50;;
17451;SDS011;8843;48.838;9.324;2023-04-08T15:01:39;6.80;;;4.67;;